Time;durP1;ratioP1;P1;durP2;ratioP2;P2;SDS_P1;SDS_P2;PMS_P1;PMS_P2;Temp;Humidity;BMP_temperature;BMP_pressure;BME280_temperature;BME280_humidity;BME280_pressure;Samples;Min_cycle;Max_cycle;Signal;HPM_P1;HPM_P2
2022/05/08 00:04:00;;;;;;;13.10;12.00;;;14.80;99.90;;;;;;10588549;28;20207;-80
2022/05/08 00:09:03;;;;;;;12.80;11.80;;;14.80;99.90;;;;;;10575342;28;20218;-80
2022/05/08 00:14:06;;;;;;;13.17;12.07;;;14.80;99.90;;;;;;10562385;28;20285;-80
2022/05/08 00:19:08;;;;;;;12.23;11.33;;;14.70;99.90;;;;;;10582567;28;20253;-80
2022/05/08 00:24:11;;;;;;;11.47;10.47;;;14.70;99.90;;;;;;10583661;28;20195;-79
2022/05/08 00:29:15;;;;;;;12.50;11.60;;;14.70;99.90;;;;;;10571644;28;20222;-80
2022/05/08 00:34:17;;;;;;;12.33;11.33;;;14.60;99.90;;;;;;10574717;28;20215;-80
2022/05/08 00:39:20;;;;;;;11.97;11.07;;;14.60;99.90;;;;;;10560633;28;20321;-80
2022/05/08 00:44:22;;;;;;;13.20;12.10;;;14.50;99.90;;;;;;10588758;28;20202;-79
2022/05/08 00:49:25;;;;;;;12.90;11.90;;;14.40;99.90;;;;;;10564248;28;20306;-79
2022/05/08 00:54:28;;;;;;;13.03;12.00;;;14.40;99.90;;;;;;10578557;28;20191;-78
2022/05/08 00:59:32;;;;;;;13.07;11.97;;;14.30;99.90;;;;;;10577743;28;20230;-79
2022/05/08 01:04:34;;;;;;;14.37;13.17;;;14.30;99.90;;;;;;10577153;28;20199;-79
2022/05/08 01:09:37;;;;;;;13.53;12.47;;;14.20;99.90;;;;;;10553090;28;20228;-80
2022/05/08 01:14:42;;;;;;;14.70;13.53;;;14.20;99.90;;;;;;10586959;28;20201;-79
2022/05/08 01:19:44;;;;;;;13.60;12.43;;;14.20;99.90;;;;;;10569451;28;20668;-79
2022/05/08 01:24:47;;;;;;;13.43;12.23;;;14.20;99.90;;;;;;10578873;28;20195;-79
2022/05/08 01:29:50;;;;;;;13.73;12.53;;;14.10;99.90;;;;;;10562220;28;20218;-80
2022/05/08 01:34:52;;;;;;;13.70;12.53;;;14.00;99.90;;;;;;10582256;28;20199;-80
2022/05/08 01:39:57;;;;;;;15.90;14.53;;;14.00;99.90;;;;;;10560242;28;20231;-79
2022/05/08 01:44:59;;;;;;;16.63;15.23;;;14.00;99.90;;;;;;10582981;28;20233;-79
2022/05/08 01:50:01;;;;;;;14.63;13.53;;;13.90;99.90;;;;;;10579030;28;20242;-79
2022/05/08 01:55:06;;;;;;;16.10;14.90;;;13.90;99.90;;;;;;10580584;28;20286;-80
2022/05/08 02:00:09;;;;;;;16.20;15.00;;;13.90;99.90;;;;;;10565209;28;20238;-79
2022/05/08 02:05:17;;;;;;;15.53;14.23;;;13.80;99.90;;;;;;10568773;28;20314;-80
2022/05/08 02:10:21;;;;;;;15.67;14.40;;;13.80;99.90;;;;;;10561667;28;20762;-80
2022/05/08 02:15:24;;;;;;;16.00;14.67;;;13.80;99.90;;;;;;10583493;28;20203;-80
2022/05/08 02:20:27;;;;;;;15.10;14.00;;;13.80;99.90;;;;;;10561331;28;20218;-80
2022/05/08 02:25:31;;;;;;;14.70;13.50;;;13.70;99.90;;;;;;10547589;28;20203;-80
2022/05/08 02:30:33;;;;;;;15.70;14.30;;;13.70;99.90;;;;;;10560139;28;20235;-80
2022/05/08 02:35:35;;;;;;;16.27;14.83;;;13.70;99.90;;;;;;10578171;28;20203;-79
2022/05/08 02:40:39;;;;;;;14.97;13.80;;;13.70;99.90;;;;;;10558590;28;20268;-80
2022/05/08 02:45:41;;;;;;;15.73;14.43;;;13.70;99.90;;;;;;10583134;28;20202;-79
2022/05/08 02:50:43;;;;;;;16.60;15.10;;;13.70;99.90;;;;;;10568273;28;20222;-80
2022/05/08 03:01:08;;;;;;;14.60;13.40;;;13.70;99.90;;;;;;10558013;28;20291;-80
2022/05/08 03:06:13;;;;;;;15.73;14.47;;;13.70;99.90;;;;;;10561016;28;20202;-79
2022/05/08 03:11:29;;;;;;;16.50;15.10;;;13.60;99.90;;;;;;10579466;28;20202;-80
2022/05/08 03:16:31;;;;;;;15.50;14.17;;;13.50;99.90;;;;;;10581342;28;20215;-78
2022/05/08 03:21:34;;;;;;;15.63;14.43;;;13.40;99.90;;;;;;10567937;28;20644;-77
2022/05/08 03:26:38;;;;;;;16.43;14.93;;;13.40;99.90;;;;;;10586070;28;20219;-79
2022/05/08 03:31:40;;;;;;;15.00;13.70;;;13.40;99.90;;;;;;10576072;28;20227;-79
2022/05/08 03:36:42;;;;;;;16.07;14.67;;;13.40;99.90;;;;;;10571321;28;20237;-79
2022/05/08 03:41:47;;;;;;;17.47;15.87;;;13.40;99.90;;;;;;10579100;28;20282;-77
2022/05/08 03:46:49;;;;;;;15.37;14.07;;;13.40;99.90;;;;;;10570165;28;20223;-79
2022/05/08 03:51:51;;;;;;;15.83;14.63;;;13.40;99.90;;;;;;10566671;28;20248;-79
2022/05/08 03:56:54;;;;;;;17.33;16.03;;;13.30;99.90;;;;;;10588931;28;20721;-80
2022/05/08 04:01:56;;;;;;;17.97;16.37;;;13.30;99.90;;;;;;10584564;28;20199;-78
2022/05/08 04:06:58;;;;;;;17.47;15.93;;;13.30;99.90;;;;;;10579026;28;20342;-78
2022/05/08 04:12:02;;;;;;;18.20;16.27;;;13.30;99.90;;;;;;10588132;28;20716;-79
2022/05/08 04:17:04;;;;;;;16.90;15.47;;;13.30;99.90;;;;;;10580633;28;20229;-78
2022/05/08 04:27:27;;;;;;;19.30;17.60;;;13.30;99.90;;;;;;10563928;28;20301;-79
2022/05/08 04:32:29;;;;;;;18.83;17.23;;;13.30;99.90;;;;;;10538442;28;20203;-79
2022/05/08 04:37:31;;;;;;;18.97;17.43;;;13.30;99.90;;;;;;10564775;28;20249;-80
2022/05/08 04:42:35;;;;;;;18.70;17.10;;;13.40;99.90;;;;;;10571914;28;20263;-79
2022/05/08 04:47:37;;;;;;;16.77;15.37;;;13.40;99.90;;;;;;10585200;28;20563;-79
2022/05/08 04:52:39;;;;;;;18.50;17.00;;;13.40;99.90;;;;;;10567486;28;20225;-80
2022/05/08 04:57:42;;;;;;;19.17;17.67;;;13.40;99.90;;;;;;10587451;28;20211;-79
2022/05/08 05:02:45;;;;;;;19.70;17.93;;;13.40;99.90;;;;;;10561958;28;20195;-79
2022/05/08 05:07:52;;;;;;;18.80;17.30;;;13.50;99.90;;;;;;10562547;28;20706;-79
2022/05/08 05:12:56;;;;;;;18.80;17.20;;;13.50;99.90;;;;;;10584372;28;20256;-79
2022/05/08 05:18:01;;;;;;;18.10;16.57;;;13.60;99.90;;;;;;10568528;28;20258;-78
2022/05/08 05:23:04;;;;;;;18.17;16.60;;;13.60;99.90;;;;;;10590944;28;20246;-78
2022/05/08 05:28:08;;;;;;;19.23;17.53;;;13.70;99.90;;;;;;10579402;28;20219;-78
2022/05/08 05:33:15;;;;;;;20.93;19.20;;;13.80;99.90;;;;;;10561161;28;20195;-77
2022/05/08 05:38:17;;;;;;;19.73;18.13;;;13.80;99.90;;;;;;10577302;28;20219;-78
2022/05/08 05:43:22;;;;;;;18.47;17.07;;;13.90;99.90;;;;;;10562075;28;20227;-79
2022/05/08 05:48:24;;;;;;;21.40;19.50;;;14.00;99.90;;;;;;10577030;28;20548;-78
2022/05/08 05:53:26;;;;;;;20.73;18.93;;;14.10;99.90;;;;;;10551936;28;20203;-78
2022/05/08 05:58:30;;;;;;;21.10;19.00;;;14.20;99.90;;;;;;10567992;28;20252;-78
2022/05/08 06:03:33;;;;;;;22.00;20.10;;;14.30;99.90;;;;;;10575186;28;20233;-78
2022/05/08 06:08:35;;;;;;;23.70;21.40;;;14.50;99.90;;;;;;10553896;28;20264;-77
2022/05/08 06:13:39;;;;;;;22.00;20.10;;;14.60;99.90;;;;;;10542644;28;20192;-78
2022/05/08 06:18:41;;;;;;;23.27;21.20;;;14.80;99.90;;;;;;10571997;28;20593;-77
2022/05/08 06:23:43;;;;;;;23.83;21.63;;;15.00;99.90;;;;;;10565658;28;20226;-78
2022/05/08 06:28:46;;;;;;;23.83;21.67;;;15.10;99.90;;;;;;10572482;28;20219;-77
2022/05/08 06:33:49;;;;;;;21.33;19.63;;;15.30;99.90;;;;;;10565443;28;20204;-78
2022/05/08 06:38:52;;;;;;;22.80;20.90;;;15.40;99.90;;;;;;10534475;28;20349;-77
2022/05/08 06:43:55;;;;;;;22.63;20.73;;;15.60;99.90;;;;;;10564304;28;20225;-77
2022/05/08 06:48:57;;;;;;;21.50;19.70;;;15.70;99.90;;;;;;10565046;28;20215;-77
2022/05/08 06:53:59;;;;;;;24.77;22.17;;;15.90;99.90;;;;;;10573387;28;20195;-78
2022/05/08 07:04:23;;;;;;;19.77;18.17;;;16.20;99.90;;;;;;10533415;28;20205;-78
2022/05/08 07:09:25;;;;;;;21.50;19.70;;;16.40;99.90;;;;;;10567161;28;20211;-78
2022/05/08 07:14:28;;;;;;;20.73;19.03;;;16.60;99.90;;;;;;10569605;28;20638;-80
2022/05/08 07:19:30;;;;;;;20.33;18.73;;;16.80;99.90;;;;;;10572576;28;20305;-78
2022/05/08 07:24:33;;;;;;;21.10;19.40;;;17.00;99.90;;;;;;10561542;28;20195;-78
2022/05/08 07:29:36;;;;;;;19.07;17.40;;;17.30;99.90;;;;;;10568708;28;20250;-79
2022/05/08 07:40:00;;;;;;;19.13;17.53;;;17.60;99.90;;;;;;10518232;28;20674;-78
2022/05/08 07:45:05;;;;;;;19.47;17.90;;;17.70;99.90;;;;;;10551407;28;20616;-78
2022/05/08 07:50:09;;;;;;;21.03;19.40;;;17.80;99.90;;;;;;10546850;28;20220;-79
2022/05/08 07:55:12;;;;;;;19.77;18.00;;;17.90;99.90;;;;;;10525044;28;20197;-80
2022/05/08 08:00:16;;;;;;;18.40;16.90;;;18.00;99.90;;;;;;10567325;28;20228;-80
2022/05/08 08:05:21;;;;;;;20.20;18.17;;;18.10;99.90;;;;;;10557677;28;20235;-80
2022/05/08 08:10:24;;;;;;;19.63;18.03;;;18.40;99.90;;;;;;10559209;28;20302;-80
2022/05/08 08:15:28;;;;;;;18.33;16.63;;;18.60;99.90;;;;;;10568107;28;20256;-80
2022/05/08 08:20:30;;;;;;;16.77;15.40;;;18.80;99.90;;;;;;10557022;28;20299;-80
2022/05/08 08:25:32;;;;;;;16.37;14.87;;;19.00;99.90;;;;;;10591288;28;20282;-80
2022/05/08 08:30:36;;;;;;;15.90;14.70;;;19.40;99.90;;;;;;10582205;28;20243;-80
2022/05/08 08:35:39;;;;;;;14.60;13.40;;;19.90;99.90;;;;;;10567439;28;20214;-80
2022/05/08 08:40:42;;;;;;;17.07;15.67;;;20.50;99.90;;;;;;10577046;28;20295;-79
2022/05/08 08:51:07;;;;;;;12.30;11.40;;;21.90;99.80;;;;;;10599029;28;20198;-81
2022/05/08 08:56:10;;;;;;;12.57;11.37;;;22.50;99.30;;;;;;10602960;28;20382;-81
2022/05/08 09:01:16;;;;;;;11.60;10.63;;;23.00;98.60;;;;;;10605171;28;20309;-81
2022/05/08 09:06:18;;;;;;;11.83;10.93;;;23.40;98.00;;;;;;10599484;28;20194;-81
2022/05/08 09:11:35;;;;;;;12.20;11.10;;;23.60;96.60;;;;;;10587107;28;20195;-81
2022/05/08 09:16:54;;;;;;;11.47;10.57;;;23.60;95.30;;;;;;10573566;28;20635;-81
2022/05/08 09:22:01;;;;;;;10.90;10.10;;;23.40;95.00;;;;;;10572485;28;20218;-80
2022/05/08 09:27:11;;;;;;;11.03;10.13;;;23.20;94.90;;;;;;10595089;28;20291;-80
2022/05/08 09:32:35;;;;;;;12.83;11.53;;;23.00;95.70;;;;;;10586096;28;20202;-80
2022/05/08 09:37:53;;;;;;;11.13;10.23;;;23.00;94.90;;;;;;10591458;28;20302;-79
2022/05/08 09:42:55;;;;;;;11.60;10.53;;;23.20;95.40;;;;;;10580891;28;20190;-80
2022/05/08 09:47:58;;;;;;;11.33;10.47;;;23.20;95.60;;;;;;10572066;28;20219;-79
2022/05/08 09:53:02;;;;;;;10.30;9.07;;;23.10;94.40;;;;;;10588245;28;20248;-80
2022/05/08 09:58:08;;;;;;;10.27;9.47;;;22.90;95.10;;;;;;10587936;28;20238;-80
2022/05/08 10:03:11;;;;;;;11.37;10.40;;;23.00;96.30;;;;;;10576828;28;20196;-79
2022/05/08 10:08:15;;;;;;;9.33;8.63;;;23.10;95.20;;;;;;10583746;28;20295;-79
2022/05/08 10:14:03;;;;;;;11.13;10.10;;;23.20;95.40;;;;;;10564281;28;20203;-80
2022/05/08 10:19:53;;;;;;;10.80;9.90;;;23.20;95.20;;;;;;10579161;28;20241;-79
2022/05/08 10:25:15;;;;;;;9.43;8.73;;;23.00;93.40;;;;;;10580950;28;20229;-79
2022/05/08 10:30:22;;;;;;;11.23;10.43;;;22.80;95.80;;;;;;10578008;28;20294;-80
2022/05/08 10:35:27;;;;;;;10.60;9.63;;;22.60;94.60;;;;;;10585657;28;20199;-79
2022/05/08 10:40:35;;;;;;;9.80;9.10;;;22.50;95.40;;;;;;10559361;28;20269;-79
2022/05/08 10:45:43;;;;;;;9.70;9.00;;;22.50;95.20;;;;;;10581697;28;20572;-79
2022/05/08 10:50:47;;;;;;;7.00;6.50;;;22.50;96.30;;;;;;10583258;28;20207;-79
2022/05/08 10:55:51;;;;;;;7.20;6.70;;;22.40;96.20;;;;;;10584153;28;20199;-79
2022/05/08 11:01:02;;;;;;;7.23;6.73;;;22.40;92.30;;;;;;10540802;28;20231;-78
2022/05/08 11:06:06;;;;;;;6.03;5.53;;;22.30;90.40;;;;;;10525812;28;20204;-80
2022/05/08 11:11:11;;;;;;;6.77;6.17;;;22.30;92.90;;;;;;10532995;28;20587;-80
2022/05/08 11:16:37;;;;;;;5.87;5.47;;;22.20;94.10;;;;;;10546172;28;20307;-79
2022/05/08 11:21:40;;;;;;;6.60;6.10;;;22.20;92.80;;;;;;10544905;28;20214;-79
2022/05/08 11:26:44;;;;;;;7.03;6.57;;;22.10;92.90;;;;;;10554483;28;20243;-79
2022/05/08 11:36:04;;;;;;;6.30;5.90;;;22.00;94.20;;;;;;10554019;28;20685;-79
2022/05/08 11:37:19;;;;;;;7.10;6.60;;;22.00;91.60;;;;;;10574422;22;20244;-83
2022/05/08 11:42:23;;;;;;;8.00;7.30;;;22.00;92.00;;;;;;10475650;28;20220;-82
2022/05/08 11:47:25;;;;;;;6.27;5.63;;;22.10;90.60;;;;;;10482418;28;20654;-82
2022/05/08 11:52:27;;;;;;;7.27;6.57;;;22.20;91.70;;;;;;10499317;28;20294;-83
2022/05/08 11:57:41;;;;;;;7.93;7.23;;;22.20;91.30;;;;;;10492817;28;20237;-82
2022/05/08 12:02:46;;;;;;;6.77;6.17;;;22.20;90.50;;;;;;10477239;28;20246;-84
2022/05/08 12:07:48;;;;;;;7.33;6.83;;;22.10;90.80;;;;;;10475500;28;20655;-85
2022/05/08 12:13:06;;;;;;;6.40;5.80;;;22.00;92.60;;;;;;10484884;28;20550;-83
2022/05/08 12:18:08;;;;;;;7.23;6.70;;;22.10;93.50;;;;;;10474107;28;20650;-85
2022/05/08 12:23:11;;;;;;;6.20;5.70;;;22.20;92.00;;;;;;10482200;28;20213;-84
2022/05/08 12:28:15;;;;;;;6.07;5.60;;;22.20;92.10;;;;;;10476121;28;20234;-84
2022/05/08 12:33:20;;;;;;;6.33;5.90;;;22.20;91.40;;;;;;10495167;28;20252;-86
2022/05/08 12:38:23;;;;;;;6.60;6.20;;;22.10;91.10;;;;;;10474146;28;20214;-84
2022/05/08 12:43:35;;;;;;;5.90;5.50;;;21.90;90.60;;;;;;10481255;28;20228;-86
2022/05/08 12:48:37;;;;;;;7.37;6.77;;;21.90;93.50;;;;;;10475165;28;20223;-85
2022/05/08 12:53:41;;;;;;;5.73;5.20;;;21.80;91.10;;;;;;10474775;28;20258;-85
2022/05/08 13:04:06;;;;;;;5.90;5.50;;;21.50;91.00;;;;;;10465798;28;20592;-83
2022/05/08 13:09:09;;;;;;;4.70;4.33;;;21.50;91.30;;;;;;10478645;28;20220;-84
2022/05/08 13:14:13;;;;;;;4.50;4.30;;;21.50;93.20;;;;;;10485075;28;20197;-82
2022/05/08 13:19:15;;;;;;;5.50;5.10;;;21.50;91.00;;;;;;10491612;28;20307;-84
2022/05/08 13:24:17;;;;;;;6.27;5.77;;;21.50;92.30;;;;;;10504612;28;20223;-81
2022/05/08 13:29:20;;;;;;;5.17;4.87;;;21.60;90.80;;;;;;10512907;28;20209;-84
2022/05/08 13:34:25;;;;;;;5.13;4.77;;;21.70;93.40;;;;;;10485822;28;20204;-82
2022/05/08 13:39:27;;;;;;;4.70;4.30;;;21.70;93.00;;;;;;10477933;28;20295;-83
2022/05/08 13:44:32;;;;;;;4.43;4.03;;;21.70;90.80;;;;;;10493153;28;20692;-82
2022/05/08 13:49:34;;;;;;;4.37;4.07;;;21.70;88.20;;;;;;10497671;28;20599;-82
2022/05/08 13:54:37;;;;;;;5.63;5.10;;;21.80;91.60;;;;;;10494290;28;20200;-83
2022/05/08 13:59:42;;;;;;;4.80;4.50;;;21.80;90.00;;;;;;10504682;28;20517;-84
2022/05/08 14:04:45;;;;;;;4.63;4.33;;;21.90;90.80;;;;;;10491706;28;20211;-83
2022/05/08 14:09:48;;;;;;;5.07;4.47;;;21.90;91.60;;;;;;10490259;28;20216;-84
2022/05/08 14:14:51;;;;;;;4.87;4.57;;;21.90;86.70;;;;;;10487540;28;20501;-81
2022/05/08 14:19:53;;;;;;;5.57;5.13;;;21.90;91.00;;;;;;10490204;28;20232;-84
2022/05/08 14:24:55;;;;;;;5.00;4.70;;;22.00;87.90;;;;;;10471443;28;20225;-82
2022/05/08 14:29:59;;;;;;;10.13;5.47;;;21.90;88.00;;;;;;10509608;28;20927;-80
2022/05/08 14:40:21;;;;;;;4.43;4.13;;;22.00;90.70;;;;;;10494863;28;20243;-83
2022/05/08 14:45:26;;;;;;;5.80;5.30;;;22.00;89.70;;;;;;10488514;28;20212;-82
2022/05/08 14:50:29;;;;;;;5.20;4.90;;;22.00;90.50;;;;;;10491953;28;20220;-82
2022/05/08 14:55:32;;;;;;;5.40;5.00;;;21.90;87.70;;;;;;10503245;28;20199;-80
2022/05/08 15:00:37;;;;;;;5.10;4.73;;;21.90;86.20;;;;;;10484104;28;20281;-84
2022/05/08 15:05:39;;;;;;;5.37;4.93;;;21.90;89.00;;;;;;10470584;28;20200;-84
2022/05/08 15:10:42;;;;;;;5.30;4.80;;;21.80;88.10;;;;;;10493955;28;20239;-81
2022/05/08 15:15:45;;;;;;;5.73;5.33;;;21.80;91.90;;;;;;10475333;28;20200;-82
2022/05/08 15:20:53;;;;;;;4.70;4.40;;;21.80;89.40;;;;;;10473265;28;20315;-81
2022/05/08 15:25:55;;;;;;;5.57;5.10;;;21.80;88.90;;;;;;10467221;28;20842;-81
2022/05/08 15:30:58;;;;;;;4.63;4.33;;;21.80;87.80;;;;;;10463964;28;20213;-82
2022/05/08 15:36:01;;;;;;;5.40;5.00;;;21.70;90.40;;;;;;10485403;28;20723;-82
2022/05/08 15:41:03;;;;;;;4.97;4.50;;;21.70;87.70;;;;;;10488305;28;20679;-82
2022/05/08 15:46:11;;;;;;;5.10;4.60;;;21.60;86.10;;;;;;10495513;28;20583;-81
2022/05/08 15:51:17;;;;;;;5.67;5.20;;;21.50;87.50;;;;;;10497538;28;20217;-84
2022/05/08 15:56:19;;;;;;;4.40;4.10;;;21.50;84.90;;;;;;10493729;28;20200;-82
2022/05/08 16:01:23;;;;;;;4.73;4.33;;;21.50;86.90;;;;;;10483851;28;20224;-85
2022/05/08 16:06:25;;;;;;;5.00;4.60;;;21.40;90.30;;;;;;10499416;28;20200;-83
2022/05/08 16:11:28;;;;;;;4.93;4.53;;;21.40;86.30;;;;;;10496463;28;20212;-82
2022/05/08 16:27:25;;;;;;;4.70;4.30;;;21.10;88.00;;;;;;10467137;28;20216;-84
2022/05/08 16:32:29;;;;;;;5.47;5.00;;;21.10;91.30;;;;;;10479797;28;20205;-81
2022/05/08 16:37:31;;;;;;;5.10;4.80;;;21.00;92.00;;;;;;10489093;28;20276;-82
2022/05/08 16:42:33;;;;;;;4.57;4.27;;;20.90;92.70;;;;;;10504767;28;20235;-84
2022/05/08 16:47:38;;;;;;;5.23;4.80;;;20.90;91.50;;;;;;10483337;28;20231;-85
2022/05/08 16:52:44;;;;;;;4.97;4.63;;;20.80;91.60;;;;;;10490366;28;20197;-84
2022/05/08 16:57:46;;;;;;;4.97;4.67;;;20.80;92.90;;;;;;10482694;28;20246;-85
2022/05/08 17:02:50;;;;;;;6.00;5.60;;;20.80;92.60;;;;;;10509497;28;20228;-84
2022/05/08 17:07:53;;;;;;;5.67;5.27;;;20.80;90.40;;;;;;10484947;28;20244;-84
2022/05/08 17:12:56;;;;;;;5.43;5.13;;;20.80;92.80;;;;;;10494912;28;20200;-83
2022/05/08 17:17:59;;;;;;;5.83;5.43;;;20.70;93.60;;;;;;10489881;28;20739;-83
2022/05/08 17:23:02;;;;;;;5.27;4.97;;;20.60;94.90;;;;;;10486572;28;20259;-83
2022/05/08 17:33:27;;;;;;;5.43;5.03;;;20.50;94.00;;;;;;10503164;28;20200;-83
2022/05/08 17:38:29;;;;;;;6.20;5.77;;;20.40;94.00;;;;;;10488190;28;20228;-82
2022/05/08 17:43:31;;;;;;;6.23;5.63;;;20.40;95.00;;;;;;10504724;28;20208;-84
2022/05/08 17:48:43;;;;;;;7.80;5.90;;;20.40;96.70;;;;;;10509257;28;20222;-84
2022/05/08 17:53:45;;;;;;;5.80;5.40;;;20.30;96.90;;;;;;10491106;28;20196;-83
2022/05/08 17:58:47;;;;;;;5.53;5.13;;;20.20;97.20;;;;;;10500568;28;20205;-84
2022/05/08 18:09:10;;;;;;;6.13;5.70;;;20.10;97.50;;;;;;10503818;28;20220;-85
2022/05/08 18:14:13;;;;;;;5.70;5.30;;;20.00;98.10;;;;;;10512568;28;20198;-84
2022/05/08 18:19:17;;;;;;;6.03;5.63;;;20.00;98.40;;;;;;10512737;28;20234;-85
2022/05/08 18:24:36;;;;;;;5.83;5.43;;;19.90;98.30;;;;;;10503045;28;20208;-84
2022/05/08 18:29:38;;;;;;;5.63;5.33;;;19.80;97.70;;;;;;10502720;28;20224;-85
2022/05/08 18:34:42;;;;;;;5.80;5.40;;;19.70;98.00;;;;;;10507797;28;20596;-83
2022/05/08 18:39:44;;;;;;;6.60;6.10;;;19.60;97.10;;;;;;10495639;28;20216;-84
2022/05/08 18:44:46;;;;;;;7.30;6.03;;;19.50;97.80;;;;;;10466375;28;20238;-83
2022/05/08 18:49:50;;;;;;;6.90;6.40;;;19.50;98.50;;;;;;10479582;28;20228;-84
2022/05/08 18:54:52;;;;;;;6.17;5.77;;;19.40;98.00;;;;;;10491667;28;20250;-83
2022/05/08 18:59:56;;;;;;;6.63;6.03;;;19.30;98.70;;;;;;10497703;28;20307;-84
2022/05/08 19:04:59;;;;;;;6.17;5.77;;;19.20;98.20;;;;;;10479815;28;20239;-82
2022/05/08 19:10:02;;;;;;;6.67;6.17;;;19.10;98.20;;;;;;10474854;28;20242;-82
2022/05/08 19:15:05;;;;;;;7.57;6.97;;;18.90;98.10;;;;;;10477558;28;20204;-83
2022/05/08 19:20:10;;;;;;;7.50;6.90;;;18.80;97.80;;;;;;10501217;28;20280;-83
2022/05/08 19:25:13;;;;;;;7.40;6.63;;;18.70;98.30;;;;;;10501481;28;20208;-83
2022/05/08 19:30:15;;;;;;;7.40;6.70;;;18.60;99.00;;;;;;10515735;28;20205;-85
2022/05/08 19:40:39;;;;;;;12.00;10.80;;;18.40;99.40;;;;;;10507916;28;20287;-85
2022/05/08 19:45:41;;;;;;;9.40;8.50;;;18.30;99.50;;;;;;10487080;28;20236;-85
2022/05/08 19:50:45;;;;;;;7.60;7.00;;;18.20;99.80;;;;;;10484394;28;20594;-83
2022/05/08 19:55:47;;;;;;;7.77;7.17;;;18.10;99.70;;;;;;10502306;28;20679;-83
2022/05/08 20:00:49;;;;;;;8.73;8.13;;;18.00;99.90;;;;;;10518800;28;20228;-83
2022/05/08 20:05:52;;;;;;;7.60;6.90;;;18.00;99.90;;;;;;10487817;28;20638;-83
2022/05/08 20:10:59;;;;;;;7.47;6.97;;;17.90;99.90;;;;;;10503158;28;20208;-83
2022/05/08 20:16:02;;;;;;;8.27;7.67;;;17.80;99.90;;;;;;10506871;28;20209;-82
2022/05/08 20:26:25;;;;;;;8.60;7.90;;;17.60;99.90;;;;;;10506069;28;20204;-84
2022/05/08 20:31:27;;;;;;;8.30;7.60;;;17.40;99.90;;;;;;10506118;28;20209;-85
2022/05/08 20:36:30;;;;;;;8.33;7.73;;;17.40;99.90;;;;;;10491407;28;20200;-85
2022/05/08 20:41:34;;;;;;;7.90;7.30;;;17.30;99.90;;;;;;10501686;28;20274;-85
2022/05/08 20:46:37;;;;;;;8.10;7.40;;;17.20;99.90;;;;;;10503542;28;20194;-85
2022/05/08 20:51:40;;;;;;;8.50;7.90;;;17.20;99.90;;;;;;10510787;28;20203;-85
2022/05/08 20:56:43;;;;;;;8.30;7.70;;;17.20;99.90;;;;;;10518524;28;20211;-85
2022/05/08 21:01:45;;;;;;;8.43;7.73;;;17.20;99.90;;;;;;10504807;28;20559;-84
2022/05/08 21:12:09;;;;;;;8.10;7.53;;;17.00;99.90;;;;;;10512246;28;20215;-84
2022/05/08 21:17:11;;;;;;;9.00;8.40;;;16.90;99.90;;;;;;10485929;28;20220;-85
2022/05/08 21:22:16;;;;;;;9.30;8.60;;;16.90;99.90;;;;;;10525064;28;20223;-82
2022/05/08 21:27:18;;;;;;;8.00;7.40;;;16.80;99.90;;;;;;10539352;28;20216;-84
2022/05/08 21:32:21;;;;;;;8.90;8.00;;;16.80;99.90;;;;;;10505385;28;20189;-85
2022/05/08 21:37:24;;;;;;;7.90;7.40;;;16.70;99.90;;;;;;10479222;28;20232;-82
2022/05/08 21:42:26;;;;;;;9.30;8.57;;;16.60;99.90;;;;;;10508380;28;20280;-83
2022/05/08 21:47:29;;;;;;;8.40;7.70;;;16.60;99.90;;;;;;10502028;28;20263;-85
2022/05/08 21:52:32;;;;;;;8.43;7.83;;;16.50;99.90;;;;;;10496536;28;20649;-85
2022/05/08 21:57:34;;;;;;;9.30;8.50;;;16.50;99.90;;;;;;10495434;28;20607;-85
2022/05/08 22:02:37;;;;;;;9.30;8.70;;;16.50;99.90;;;;;;10490178;28;20251;-84
2022/05/08 22:07:43;;;;;;;9.73;9.03;;;16.50;99.90;;;;;;10487006;28;20588;-84
2022/05/08 22:12:45;;;;;;;8.93;8.33;;;16.40;99.90;;;;;;10479139;28;20193;-85
2022/05/08 22:17:47;;;;;;;10.73;9.93;;;16.40;99.90;;;;;;10489280;28;20692;-84
2022/05/08 22:22:51;;;;;;;10.80;10.00;;;16.40;99.90;;;;;;10488481;28;20826;-85
2022/05/08 22:27:55;;;;;;;9.97;9.07;;;16.30;99.90;;;;;;10508138;28;20216;-85
2022/05/08 22:32:57;;;;;;;10.10;9.30;;;16.30;99.90;;;;;;10511192;28;20201;-83
2022/05/08 22:38:01;;;;;;;9.10;8.23;;;16.20;99.90;;;;;;10490027;28;20224;-84
2022/05/08 22:43:06;;;;;;;9.23;8.53;;;16.20;99.90;;;;;;10500110;28;20223;-83
2022/05/08 22:48:08;;;;;;;9.00;8.30;;;16.10;99.90;;;;;;10496549;28;20220;-84
2022/05/08 22:53:13;;;;;;;9.37;8.67;;;16.10;99.90;;;;;;10498972;28;20207;-85
2022/05/08 22:58:15;;;;;;;9.00;8.30;;;16.00;99.90;;;;;;10491790;28;20736;-82
2022/05/08 23:03:18;;;;;;;9.30;8.60;;;16.00;99.90;;;;;;10491849;28;20211;-85
2022/05/08 23:08:22;;;;;;;9.53;8.30;;;15.90;99.90;;;;;;10486157;28;20759;-85
2022/05/08 23:13:24;;;;;;;8.87;7.93;;;15.80;99.90;;;;;;10489983;28;20201;-84
2022/05/08 23:18:27;;;;;;;8.13;7.43;;;15.80;99.90;;;;;;10493522;28;20255;-83
2022/05/08 23:23:29;;;;;;;8.77;8.13;;;15.70;99.90;;;;;;10473822;28;20224;-83
2022/05/08 23:28:33;;;;;;;8.33;7.73;;;15.70;99.90;;;;;;10492315;28;20220;-83
2022/05/08 23:33:39;;;;;;;8.40;7.80;;;15.70;99.90;;;;;;10476312;28;20695;-83
2022/05/08 23:38:42;;;;;;;8.30;7.70;;;15.60;99.90;;;;;;10493073;28;20695;-83
2022/05/08 23:43:45;;;;;;;9.90;7.83;;;15.50;99.90;;;;;;10489462;28;20213;-83
2022/05/08 23:48:48;;;;;;;8.53;7.93;;;15.50;99.90;;;;;;10474720;28;20245;-83
2022/05/08 23:53:51;;;;;;;9.23;8.43;;;15.40;99.90;;;;;;10494154;28;20254;-84
2022/05/08 23:58:53;;;;;;;8.67;8.00;;;15.40;99.90;;;;;;10465512;28;20258;-83
